sensor_id;sensor_type;location;lat;lon;timestamp;temperature;humidity
19252;DHT22;9760;50.944;5.304;2023-07-29T00:01:33;19.80;99.90
19252;DHT22;9760;50.944;5.304;2023-07-29T00:03:59;19.80;99.90
19252;DHT22;9760;50.944;5.304;2023-07-29T00:06:25;19.80;99.90
19252;DHT22;9760;50.944;5.304;2023-07-29T00:08:51;19.90;99.90
19252;DHT22;9760;50.944;5.304;2023-07-29T00:11:16;19.80;99.90
19252;DHT22;9760;50.944;5.304;2023-07-29T00:13:42;19.70;99.90
19252;DHT22;9760;50.944;5.304;2023-07-29T00:16:07;19.70;99.90
19252;DHT22;9760;50.944;5.304;2023-07-29T00:18:33;19.60;99.90
19252;DHT22;9760;50.944;5.304;2023-07-29T00:20:59;19.60;99.90
19252;DHT22;9760;50.944;5.304;2023-07-29T00:23:24;19.60;99.90
19252;DHT22;9760;50.944;5.304;2023-07-29T00:25:50;19.70;99.90
19252;DHT22;9760;50.944;5.304;2023-07-29T00:28:16;19.70;99.90
19252;DHT22;9760;50.944;5.304;2023-07-29T00:30:41;19.70;99.90
19252;DHT22;9760;50.944;5.304;2023-07-29T00:33:07;19.60;99.90
19252;DHT22;9760;50.944;5.304;2023-07-29T00:35:33;19.60;99.90
19252;DHT22;9760;50.944;5.304;2023-07-29T00:37:59;19.60;99.90
19252;DHT22;9760;50.944;5.304;2023-07-29T00:40:28;19.60;99.90
19252;DHT22;9760;50.944;5.304;2023-07-29T00:42:54;19.60;99.90
19252;DHT22;9760;50.944;5.304;2023-07-29T00:45:20;19.70;99.90
19252;DHT22;9760;50.944;5.304;2023-07-29T00:47:46;19.70;99.90
19252;DHT22;9760;50.944;5.304;2023-07-29T00:50:13;19.70;99.90
19252;DHT22;9760;50.944;5.304;2023-07-29T00:52:40;19.70;99.90
19252;DHT22;9760;50.944;5.304;2023-07-29T00:55:06;19.60;99.90
19252;DHT22;9760;50.944;5.304;2023-07-29T00:57:32;19.60;99.90
19252;DHT22;9760;50.944;5.304;2023-07-29T00:59:59;19.60;99.90
19252;DHT22;9760;50.944;5.304;2023-07-29T01:02:26;19.60;99.90
19252;DHT22;9760;50.944;5.304;2023-07-29T01:04:54;19.60;99.90
19252;DHT22;9760;50.944;5.304;2023-07-29T01:07:38;19.60;99.90
19252;DHT22;9760;50.944;5.304;2023-07-29T01:13:31;19.50;99.90
19252;DHT22;9760;50.944;5.304;2023-07-29T01:15:54;19.50;99.90
19252;DHT22;9760;50.944;5.304;2023-07-29T01:18:27;19.50;99.90
19252;DHT22;9760;50.944;5.304;2023-07-29T01:20:58;19.40;99.90
19252;DHT22;9760;50.944;5.304;2023-07-29T01:23:31;19.40;99.90
19252;DHT22;9760;50.944;5.304;2023-07-29T01:25:56;19.40;99.90
19252;DHT22;9760;50.944;5.304;2023-07-29T01:28:23;19.50;99.90
19252;DHT22;9760;50.944;5.304;2023-07-29T01:30:51;19.50;99.90
19252;DHT22;9760;50.944;5.304;2023-07-29T01:33:23;19.50;99.90
19252;DHT22;9760;50.944;5.304;2023-07-29T01:35:52;19.50;99.90
19252;DHT22;9760;50.944;5.304;2023-07-29T01:38:32;19.50;99.90
19252;DHT22;9760;50.944;5.304;2023-07-29T01:41:01;19.50;99.90
19252;DHT22;9760;50.944;5.304;2023-07-29T01:43:31;19.50;99.90
19252;DHT22;9760;50.944;5.304;2023-07-29T01:45:57;19.50;99.90
19252;DHT22;9760;50.944;5.304;2023-07-29T01:48:23;19.40;99.90
19252;DHT22;9760;50.944;5.304;2023-07-29T01:50:49;19.40;99.90
19252;DHT22;9760;50.944;5.304;2023-07-29T01:53:15;19.30;99.90
19252;DHT22;9760;50.944;5.304;2023-07-29T01:55:41;19.30;99.90
19252;DHT22;9760;50.944;5.304;2023-07-29T01:58:07;19.20;99.90
19252;DHT22;9760;50.944;5.304;2023-07-29T02:00:33;19.20;99.90
19252;DHT22;9760;50.944;5.304;2023-07-29T02:02:58;19.20;99.90
19252;DHT22;9760;50.944;5.304;2023-07-29T02:05:24;19.10;99.90
19252;DHT22;9760;50.944;5.304;2023-07-29T02:07:50;19.00;99.90
19252;DHT22;9760;50.944;5.304;2023-07-29T02:10:15;19.00;99.90
19252;DHT22;9760;50.944;5.304;2023-07-29T02:12:41;19.00;99.90
19252;DHT22;9760;50.944;5.304;2023-07-29T02:15:07;19.00;99.90
19252;DHT22;9760;50.944;5.304;2023-07-29T02:17:34;18.90;99.90
19252;DHT22;9760;50.944;5.304;2023-07-29T02:19:59;18.90;99.90
19252;DHT22;9760;50.944;5.304;2023-07-29T02:22:25;18.90;99.90
19252;DHT22;9760;50.944;5.304;2023-07-29T02:24:51;18.80;99.90
19252;DHT22;9760;50.944;5.304;2023-07-29T02:27:16;18.80;99.90
19252;DHT22;9760;50.944;5.304;2023-07-29T02:29:42;18.80;99.90
19252;DHT22;9760;50.944;5.304;2023-07-29T02:32:07;18.70;99.90
19252;DHT22;9760;50.944;5.304;2023-07-29T02:34:33;18.80;99.90
19252;DHT22;9760;50.944;5.304;2023-07-29T02:36:59;18.70;99.90
19252;DHT22;9760;50.944;5.304;2023-07-29T02:39:25;18.60;99.90
19252;DHT22;9760;50.944;5.304;2023-07-29T02:41:51;18.70;99.90
19252;DHT22;9760;50.944;5.304;2023-07-29T02:44:16;18.70;99.90
19252;DHT22;9760;50.944;5.304;2023-07-29T02:46:42;18.70;99.90
19252;DHT22;9760;50.944;5.304;2023-07-29T02:49:08;18.60;99.90
19252;DHT22;9760;50.944;5.304;2023-07-29T02:51:33;18.70;99.90
19252;DHT22;9760;50.944;5.304;2023-07-29T02:53:59;18.60;99.90
19252;DHT22;9760;50.944;5.304;2023-07-29T02:56:24;18.50;99.90
19252;DHT22;9760;50.944;5.304;2023-07-29T02:59:04;18.50;99.90
19252;DHT22;9760;50.944;5.304;2023-07-29T03:01:30;18.40;99.90
19252;DHT22;9760;50.944;5.304;2023-07-29T03:03:56;18.30;99.90
19252;DHT22;9760;50.944;5.304;2023-07-29T03:06:22;18.30;99.90
19252;DHT22;9760;50.944;5.304;2023-07-29T03:08:47;18.20;99.90
19252;DHT22;9760;50.944;5.304;2023-07-29T03:11:14;18.20;99.90
19252;DHT22;9760;50.944;5.304;2023-07-29T03:13:41;18.20;99.90
19252;DHT22;9760;50.944;5.304;2023-07-29T03:16:14;18.10;99.90
19252;DHT22;9760;50.944;5.304;2023-07-29T03:18:41;18.10;99.90
19252;DHT22;9760;50.944;5.304;2023-07-29T03:21:07;18.10;99.90
19252;DHT22;9760;50.944;5.304;2023-07-29T03:23:34;18.00;99.90
19252;DHT22;9760;50.944;5.304;2023-07-29T03:26:01;18.00;99.90
19252;DHT22;9760;50.944;5.304;2023-07-29T03:28:28;17.90;99.90
19252;DHT22;9760;50.944;5.304;2023-07-29T03:30:55;17.90;99.90
19252;DHT22;9760;50.944;5.304;2023-07-29T03:33:22;17.90;99.90
19252;DHT22;9760;50.944;5.304;2023-07-29T03:35:48;17.90;99.90
19252;DHT22;9760;50.944;5.304;2023-07-29T03:38:14;17.90;99.90
19252;DHT22;9760;50.944;5.304;2023-07-29T03:40:40;18.00;99.90
19252;DHT22;9760;50.944;5.304;2023-07-29T03:43:06;17.90;99.90
19252;DHT22;9760;50.944;5.304;2023-07-29T03:45:33;17.90;99.90
19252;DHT22;9760;50.944;5.304;2023-07-29T03:47:58;17.80;99.90
19252;DHT22;9760;50.944;5.304;2023-07-29T03:50:24;17.80;99.90
19252;DHT22;9760;50.944;5.304;2023-07-29T03:52:50;17.90;99.90
19252;DHT22;9760;50.944;5.304;2023-07-29T03:55:16;17.90;99.90
19252;DHT22;9760;50.944;5.304;2023-07-29T03:57:41;17.90;99.90
19252;DHT22;9760;50.944;5.304;2023-07-29T04:00:07;17.70;99.90
19252;DHT22;9760;50.944;5.304;2023-07-29T04:02:34;17.60;99.90
19252;DHT22;9760;50.944;5.304;2023-07-29T04:05:03;17.60;99.90
19252;DHT22;9760;50.944;5.304;2023-07-29T04:07:30;17.50;99.90
19252;DHT22;9760;50.944;5.304;2023-07-29T04:09:55;17.50;99.90
19252;DHT22;9760;50.944;5.304;2023-07-29T04:12:22;17.50;99.90
19252;DHT22;9760;50.944;5.304;2023-07-29T04:14:48;17.50;99.90
19252;DHT22;9760;50.944;5.304;2023-07-29T04:17:14;17.50;99.90
19252;DHT22;9760;50.944;5.304;2023-07-29T04:19:40;17.50;99.90
19252;DHT22;9760;50.944;5.304;2023-07-29T04:22:06;17.50;99.90
19252;DHT22;9760;50.944;5.304;2023-07-29T04:24:32;17.60;99.90
19252;DHT22;9760;50.944;5.304;2023-07-29T04:26:57;17.60;99.90
19252;DHT22;9760;50.944;5.304;2023-07-29T04:29:23;17.60;99.90
19252;DHT22;9760;50.944;5.304;2023-07-29T04:31:52;17.60;99.90
19252;DHT22;9760;50.944;5.304;2023-07-29T04:34:18;17.60;99.90
19252;DHT22;9760;50.944;5.304;2023-07-29T04:36:45;17.70;99.90
19252;DHT22;9760;50.944;5.304;2023-07-29T04:39:11;17.70;99.90
19252;DHT22;9760;50.944;5.304;2023-07-29T04:41:36;17.80;99.90
19252;DHT22;9760;50.944;5.304;2023-07-29T04:44:02;17.80;99.90
19252;DHT22;9760;50.944;5.304;2023-07-29T04:46:28;17.80;99.90
19252;DHT22;9760;50.944;5.304;2023-07-29T04:48:53;17.80;99.90
19252;DHT22;9760;50.944;5.304;2023-07-29T04:51:19;17.80;99.90
19252;DHT22;9760;50.944;5.304;2023-07-29T04:53:45;17.70;99.90
19252;DHT22;9760;50.944;5.304;2023-07-29T04:56:10;17.70;99.90
19252;DHT22;9760;50.944;5.304;2023-07-29T04:58:36;17.70;99.90
19252;DHT22;9760;50.944;5.304;2023-07-29T05:01:03;17.70;99.90
19252;DHT22;9760;50.944;5.304;2023-07-29T05:03:29;17.70;99.90
19252;DHT22;9760;50.944;5.304;2023-07-29T05:05:54;17.60;99.90
19252;DHT22;9760;50.944;5.304;2023-07-29T05:08:21;17.50;99.90
19252;DHT22;9760;50.944;5.304;2023-07-29T05:10:53;17.60;99.90
19252;DHT22;9760;50.944;5.304;2023-07-29T05:13:20;17.70;99.90
19252;DHT22;9760;50.944;5.304;2023-07-29T05:15:47;17.70;99.90
19252;DHT22;9760;50.944;5.304;2023-07-29T05:18:13;17.70;99.90
19252;DHT22;9760;50.944;5.304;2023-07-29T05:20:39;17.60;99.90
19252;DHT22;9760;50.944;5.304;2023-07-29T05:23:05;17.60;99.90
19252;DHT22;9760;50.944;5.304;2023-07-29T05:25:30;17.70;99.90
19252;DHT22;9760;50.944;5.304;2023-07-29T05:27:56;17.70;99.90
19252;DHT22;9760;50.944;5.304;2023-07-29T05:30:22;17.70;99.90
19252;DHT22;9760;50.944;5.304;2023-07-29T05:32:48;17.80;99.90
19252;DHT22;9760;50.944;5.304;2023-07-29T05:35:14;18.00;99.90
19252;DHT22;9760;50.944;5.304;2023-07-29T05:37:40;18.00;99.90
19252;DHT22;9760;50.944;5.304;2023-07-29T05:40:07;18.00;99.90
19252;DHT22;9760;50.944;5.304;2023-07-29T05:42:33;18.10;99.90
19252;DHT22;9760;50.944;5.304;2023-07-29T05:44:59;18.10;99.90
19252;DHT22;9760;50.944;5.304;2023-07-29T05:47:24;18.20;99.90
19252;DHT22;9760;50.944;5.304;2023-07-29T05:49:50;18.20;99.90
19252;DHT22;9760;50.944;5.304;2023-07-29T05:52:16;18.20;99.90
19252;DHT22;9760;50.944;5.304;2023-07-29T05:54:41;18.20;99.90
19252;DHT22;9760;50.944;5.304;2023-07-29T05:57:09;18.00;99.90
19252;DHT22;9760;50.944;5.304;2023-07-29T05:59:35;18.00;99.90
19252;DHT22;9760;50.944;5.304;2023-07-29T06:02:01;18.00;99.90
19252;DHT22;9760;50.944;5.304;2023-07-29T06:04:26;18.00;99.90
19252;DHT22;9760;50.944;5.304;2023-07-29T06:06:52;18.00;99.90
19252;DHT22;9760;50.944;5.304;2023-07-29T06:09:18;18.10;99.90
19252;DHT22;9760;50.944;5.304;2023-07-29T06:11:43;18.20;99.90
19252;DHT22;9760;50.944;5.304;2023-07-29T06:14:09;18.10;99.90
19252;DHT22;9760;50.944;5.304;2023-07-29T06:16:35;18.10;99.90
19252;DHT22;9760;50.944;5.304;2023-07-29T06:19:00;18.10;99.90
19252;DHT22;9760;50.944;5.304;2023-07-29T06:21:26;18.20;99.90
19252;DHT22;9760;50.944;5.304;2023-07-29T06:23:52;18.40;99.90
19252;DHT22;9760;50.944;5.304;2023-07-29T06:26:18;18.50;99.90
19252;DHT22;9760;50.944;5.304;2023-07-29T06:28:44;18.50;99.90
19252;DHT22;9760;50.944;5.304;2023-07-29T06:31:09;18.50;99.90
19252;DHT22;9760;50.944;5.304;2023-07-29T06:33:35;18.60;99.90
19252;DHT22;9760;50.944;5.304;2023-07-29T06:36:01;18.70;99.90
19252;DHT22;9760;50.944;5.304;2023-07-29T06:38:27;18.70;99.90
19252;DHT22;9760;50.944;5.304;2023-07-29T06:40:52;18.70;99.90
19252;DHT22;9760;50.944;5.304;2023-07-29T06:43:18;18.70;99.90
19252;DHT22;9760;50.944;5.304;2023-07-29T06:45:44;18.80;99.90
19252;DHT22;9760;50.944;5.304;2023-07-29T06:48:09;18.80;99.90
19252;DHT22;9760;50.944;5.304;2023-07-29T06:50:35;19.00;99.90
19252;DHT22;9760;50.944;5.304;2023-07-29T06:53:01;19.10;99.90
19252;DHT22;9760;50.944;5.304;2023-07-29T06:55:26;19.30;99.90
19252;DHT22;9760;50.944;5.304;2023-07-29T06:57:52;19.40;99.90
19252;DHT22;9760;50.944;5.304;2023-07-29T07:00:18;19.60;99.90
19252;DHT22;9760;50.944;5.304;2023-07-29T07:02:43;19.60;99.90
19252;DHT22;9760;50.944;5.304;2023-07-29T07:05:09;19.70;99.90
19252;DHT22;9760;50.944;5.304;2023-07-29T07:07:34;19.90;99.90
19252;DHT22;9760;50.944;5.304;2023-07-29T07:10:00;20.10;99.90
19252;DHT22;9760;50.944;5.304;2023-07-29T07:12:26;20.10;99.90
19252;DHT22;9760;50.944;5.304;2023-07-29T07:14:52;20.10;99.90
19252;DHT22;9760;50.944;5.304;2023-07-29T07:17:17;20.10;99.90
19252;DHT22;9760;50.944;5.304;2023-07-29T07:19:43;20.10;99.90
19252;DHT22;9760;50.944;5.304;2023-07-29T07:22:09;20.10;99.90
19252;DHT22;9760;50.944;5.304;2023-07-29T07:24:35;20.10;99.90
19252;DHT22;9760;50.944;5.304;2023-07-29T07:27:00;20.00;99.90
19252;DHT22;9760;50.944;5.304;2023-07-29T07:29:26;20.00;99.90
19252;DHT22;9760;50.944;5.304;2023-07-29T07:31:53;20.00;99.90
19252;DHT22;9760;50.944;5.304;2023-07-29T07:34:19;20.00;99.90
19252;DHT22;9760;50.944;5.304;2023-07-29T07:36:45;20.10;99.90
19252;DHT22;9760;50.944;5.304;2023-07-29T07:39:11;20.10;99.90
19252;DHT22;9760;50.944;5.304;2023-07-29T07:41:36;20.30;99.90
19252;DHT22;9760;50.944;5.304;2023-07-29T07:44:02;20.60;99.90
19252;DHT22;9760;50.944;5.304;2023-07-29T07:46:28;20.70;99.90
19252;DHT22;9760;50.944;5.304;2023-07-29T07:48:54;20.60;99.90
19252;DHT22;9760;50.944;5.304;2023-07-29T07:51:20;20.50;99.90
19252;DHT22;9760;50.944;5.304;2023-07-29T07:53:45;20.50;99.90
19252;DHT22;9760;50.944;5.304;2023-07-29T07:56:11;20.40;99.90
19252;DHT22;9760;50.944;5.304;2023-07-29T07:58:38;20.50;99.90
19252;DHT22;9760;50.944;5.304;2023-07-29T08:01:05;20.40;99.90
19252;DHT22;9760;50.944;5.304;2023-07-29T08:03:31;20.40;99.90
19252;DHT22;9760;50.944;5.304;2023-07-29T08:05:57;20.50;99.90
19252;DHT22;9760;50.944;5.304;2023-07-29T08:08:26;20.60;99.90
19252;DHT22;9760;50.944;5.304;2023-07-29T08:10:56;20.70;99.90
19252;DHT22;9760;50.944;5.304;2023-07-29T08:13:25;20.80;99.90
19252;DHT22;9760;50.944;5.304;2023-07-29T08:15:52;20.80;99.90
19252;DHT22;9760;50.944;5.304;2023-07-29T08:18:18;20.80;99.90
19252;DHT22;9760;50.944;5.304;2023-07-29T08:20:58;21.00;99.90
19252;DHT22;9760;50.944;5.304;2023-07-29T08:23:25;21.10;99.90
19252;DHT22;9760;50.944;5.304;2023-07-29T08:25:55;21.00;99.90
19252;DHT22;9760;50.944;5.304;2023-07-29T08:28:22;21.10;99.90
19252;DHT22;9760;50.944;5.304;2023-07-29T08:30:48;21.00;99.90
19252;DHT22;9760;50.944;5.304;2023-07-29T08:33:14;21.00;99.90
19252;DHT22;9760;50.944;5.304;2023-07-29T08:35:40;21.00;99.90
19252;DHT22;9760;50.944;5.304;2023-07-29T08:38:05;21.00;99.90
19252;DHT22;9760;50.944;5.304;2023-07-29T08:40:32;21.00;99.90
19252;DHT22;9760;50.944;5.304;2023-07-29T08:42:59;21.40;99.90
19252;DHT22;9760;50.944;5.304;2023-07-29T08:45:27;21.80;99.90
19252;DHT22;9760;50.944;5.304;2023-07-29T08:47:57;22.00;99.90
19252;DHT22;9760;50.944;5.304;2023-07-29T08:50:24;22.00;99.90
19252;DHT22;9760;50.944;5.304;2023-07-29T08:52:52;22.10;99.90
19252;DHT22;9760;50.944;5.304;2023-07-29T08:55:18;22.20;99.90
19252;DHT22;9760;50.944;5.304;2023-07-29T08:57:44;22.10;99.90
19252;DHT22;9760;50.944;5.304;2023-07-29T09:00:11;22.30;99.90
19252;DHT22;9760;50.944;5.304;2023-07-29T09:02:37;22.30;99.90
19252;DHT22;9760;50.944;5.304;2023-07-29T09:05:03;22.40;99.90
19252;DHT22;9760;50.944;5.304;2023-07-29T09:07:29;22.40;99.90
19252;DHT22;9760;50.944;5.304;2023-07-29T09:09:54;22.40;99.90
19252;DHT22;9760;50.944;5.304;2023-07-29T09:12:20;22.40;99.90
19252;DHT22;9760;50.944;5.304;2023-07-29T09:14:46;22.50;99.90
19252;DHT22;9760;50.944;5.304;2023-07-29T09:17:12;22.70;99.90
19252;DHT22;9760;50.944;5.304;2023-07-29T09:19:39;22.60;99.90
19252;DHT22;9760;50.944;5.304;2023-07-29T09:22:05;22.90;99.90
19252;DHT22;9760;50.944;5.304;2023-07-29T09:24:42;23.20;99.90
19252;DHT22;9760;50.944;5.304;2023-07-29T09:27:07;23.00;99.90
19252;DHT22;9760;50.944;5.304;2023-07-29T09:29:36;22.70;99.90
19252;DHT22;9760;50.944;5.304;2023-07-29T09:32:21;22.40;99.90
19252;DHT22;9760;50.944;5.304;2023-07-29T09:34:47;22.40;99.90
19252;DHT22;9760;50.944;5.304;2023-07-29T09:37:23;22.40;99.90
19252;DHT22;9760;50.944;5.304;2023-07-29T09:39:49;22.30;99.90
19252;DHT22;9760;50.944;5.304;2023-07-29T09:42:20;22.30;99.90
19252;DHT22;9760;50.944;5.304;2023-07-29T09:44:47;22.20;99.90
19252;DHT22;9760;50.944;5.304;2023-07-29T09:47:23;22.00;99.90
19252;DHT22;9760;50.944;5.304;2023-07-29T09:49:50;22.20;99.90
19252;DHT22;9760;50.944;5.304;2023-07-29T09:52:21;22.30;99.90
19252;DHT22;9760;50.944;5.304;2023-07-29T09:54:48;22.80;99.90
19252;DHT22;9760;50.944;5.304;2023-07-29T09:57:14;23.20;99.90
19252;DHT22;9760;50.944;5.304;2023-07-29T09:59:41;23.50;99.90
19252;DHT22;9760;50.944;5.304;2023-07-29T10:02:14;23.60;99.90
19252;DHT22;9760;50.944;5.304;2023-07-29T10:04:44;23.80;99.90
19252;DHT22;9760;50.944;5.304;2023-07-29T10:07:11;23.90;99.90
19252;DHT22;9760;50.944;5.304;2023-07-29T10:09:38;23.70;99.90
19252;DHT22;9760;50.944;5.304;2023-07-29T10:12:06;23.50;99.90
19252;DHT22;9760;50.944;5.304;2023-07-29T10:14:32;23.60;99.90
19252;DHT22;9760;50.944;5.304;2023-07-29T10:16:58;23.40;99.90
19252;DHT22;9760;50.944;5.304;2023-07-29T10:19:25;23.30;99.90
19252;DHT22;9760;50.944;5.304;2023-07-29T10:21:52;23.50;99.90
19252;DHT22;9760;50.944;5.304;2023-07-29T10:24:19;23.60;99.90
19252;DHT22;9760;50.944;5.304;2023-07-29T10:26:49;23.50;99.90
19252;DHT22;9760;50.944;5.304;2023-07-29T10:29:19;23.30;99.90
19252;DHT22;9760;50.944;5.304;2023-07-29T10:31:46;23.50;99.90
19252;DHT22;9760;50.944;5.304;2023-07-29T10:34:13;23.80;99.90
19252;DHT22;9760;50.944;5.304;2023-07-29T10:36:40;24.10;99.90
19252;DHT22;9760;50.944;5.304;2023-07-29T10:39:07;24.30;99.90
19252;DHT22;9760;50.944;5.304;2023-07-29T10:47:20;25.20;99.90
19252;DHT22;9760;50.944;5.304;2023-07-29T10:49:54;25.30;99.90
19252;DHT22;9760;50.944;5.304;2023-07-29T10:55:02;24.30;99.90
19252;DHT22;9760;50.944;5.304;2023-07-29T10:57:39;23.80;99.90
19252;DHT22;9760;50.944;5.304;2023-07-29T11:00:08;23.50;99.90
19252;DHT22;9760;50.944;5.304;2023-07-29T11:02:38;23.40;99.90
19252;DHT22;9760;50.944;5.304;2023-07-29T11:05:17;22.90;99.90
19252;DHT22;9760;50.944;5.304;2023-07-29T11:07:49;22.40;99.90
19252;DHT22;9760;50.944;5.304;2023-07-29T11:10:15;21.90;99.90
19252;DHT22;9760;50.944;5.304;2023-07-29T11:12:50;21.80;99.90
19252;DHT22;9760;50.944;5.304;2023-07-29T11:15:27;21.80;99.90
19252;DHT22;9760;50.944;5.304;2023-07-29T11:17:58;21.90;99.90
19252;DHT22;9760;50.944;5.304;2023-07-29T11:20:32;21.90;99.90
19252;DHT22;9760;50.944;5.304;2023-07-29T11:23:01;22.00;99.90
19252;DHT22;9760;50.944;5.304;2023-07-29T11:25:29;22.10;99.90
19252;DHT22;9760;50.944;5.304;2023-07-29T11:27:57;22.00;99.90
19252;DHT22;9760;50.944;5.304;2023-07-29T11:30:23;21.90;99.90
19252;DHT22;9760;50.944;5.304;2023-07-29T11:32:53;21.40;99.90
19252;DHT22;9760;50.944;5.304;2023-07-29T11:35:19;21.00;99.90
19252;DHT22;9760;50.944;5.304;2023-07-29T11:37:47;20.60;99.90
19252;DHT22;9760;50.944;5.304;2023-07-29T11:40:15;20.30;99.90
19252;DHT22;9760;50.944;5.304;2023-07-29T11:42:41;20.20;99.90
19252;DHT22;9760;50.944;5.304;2023-07-29T11:45:10;20.30;99.90
19252;DHT22;9760;50.944;5.304;2023-07-29T11:47:36;20.40;99.90
19252;DHT22;9760;50.944;5.304;2023-07-29T11:50:07;20.60;99.90
19252;DHT22;9760;50.944;5.304;2023-07-29T11:52:37;20.70;99.90
19252;DHT22;9760;50.944;5.304;2023-07-29T11:55:05;20.60;99.90
19252;DHT22;9760;50.944;5.304;2023-07-29T11:57:32;20.60;99.90
19252;DHT22;9760;50.944;5.304;2023-07-29T11:59:58;20.60;99.90
19252;DHT22;9760;50.944;5.304;2023-07-29T12:02:25;20.50;99.90
19252;DHT22;9760;50.944;5.304;2023-07-29T12:04:52;20.40;99.90
19252;DHT22;9760;50.944;5.304;2023-07-29T12:07:18;20.40;99.90
19252;DHT22;9760;50.944;5.304;2023-07-29T12:09:45;20.40;99.90
19252;DHT22;9760;50.944;5.304;2023-07-29T12:12:11;20.30;99.90
19252;DHT22;9760;50.944;5.304;2023-07-29T12:14:37;20.30;99.90
19252;DHT22;9760;50.944;5.304;2023-07-29T12:17:05;20.40;99.90
19252;DHT22;9760;50.944;5.304;2023-07-29T12:19:37;20.60;99.90
19252;DHT22;9760;50.944;5.304;2023-07-29T12:22:07;20.60;99.90
19252;DHT22;9760;50.944;5.304;2023-07-29T12:24:34;20.40;99.90
19252;DHT22;9760;50.944;5.304;2023-07-29T12:27:00;20.30;99.90
19252;DHT22;9760;50.944;5.304;2023-07-29T12:29:27;20.20;99.90
19252;DHT22;9760;50.944;5.304;2023-07-29T12:32:00;20.10;99.90
19252;DHT22;9760;50.944;5.304;2023-07-29T12:34:28;19.90;99.90
19252;DHT22;9760;50.944;5.304;2023-07-29T12:36:55;19.60;99.90
19252;DHT22;9760;50.944;5.304;2023-07-29T12:41:47;18.90;99.90
19252;DHT22;9760;50.944;5.304;2023-07-29T12:44:13;18.80;99.90
19252;DHT22;9760;50.944;5.304;2023-07-29T12:46:39;19.00;99.90
19252;DHT22;9760;50.944;5.304;2023-07-29T12:49:05;19.10;99.90
19252;DHT22;9760;50.944;5.304;2023-07-29T12:51:30;19.60;99.90
19252;DHT22;9760;50.944;5.304;2023-07-29T12:53:56;19.90;99.90
19252;DHT22;9760;50.944;5.304;2023-07-29T12:56:22;19.90;99.90
19252;DHT22;9760;50.944;5.304;2023-07-29T12:58:47;19.90;99.90
19252;DHT22;9760;50.944;5.304;2023-07-29T13:01:14;20.20;99.90
19252;DHT22;9760;50.944;5.304;2023-07-29T13:03:47;20.30;99.90
19252;DHT22;9760;50.944;5.304;2023-07-29T13:06:13;20.40;99.90
19252;DHT22;9760;50.944;5.304;2023-07-29T13:08:38;20.40;99.90
19252;DHT22;9760;50.944;5.304;2023-07-29T13:11:04;20.30;99.90
19252;DHT22;9760;50.944;5.304;2023-07-29T13:13:30;20.40;99.90
19252;DHT22;9760;50.944;5.304;2023-07-29T13:15:57;20.40;99.90
19252;DHT22;9760;50.944;5.304;2023-07-29T13:18:23;20.40;99.90
19252;DHT22;9760;50.944;5.304;2023-07-29T13:20:48;20.60;99.90
19252;DHT22;9760;50.944;5.304;2023-07-29T13:23:15;20.60;99.90
19252;DHT22;9760;50.944;5.304;2023-07-29T13:25:41;20.50;99.90
19252;DHT22;9760;50.944;5.304;2023-07-29T13:28:08;20.40;99.90
19252;DHT22;9760;50.944;5.304;2023-07-29T13:30:34;20.30;99.90
19252;DHT22;9760;50.944;5.304;2023-07-29T13:32:59;20.30;99.90
19252;DHT22;9760;50.944;5.304;2023-07-29T13:35:25;20.20;99.90
19252;DHT22;9760;50.944;5.304;2023-07-29T13:37:51;20.00;99.90
19252;DHT22;9760;50.944;5.304;2023-07-29T13:40:16;19.90;99.90
19252;DHT22;9760;50.944;5.304;2023-07-29T13:42:42;19.70;99.90
19252;DHT22;9760;50.944;5.304;2023-07-29T13:45:08;19.50;99.90
19252;DHT22;9760;50.944;5.304;2023-07-29T13:47:34;19.40;99.90
19252;DHT22;9760;50.944;5.304;2023-07-29T13:50:00;19.40;99.90
19252;DHT22;9760;50.944;5.304;2023-07-29T13:52:26;19.60;99.90
19252;DHT22;9760;50.944;5.304;2023-07-29T13:54:51;19.80;99.90
19252;DHT22;9760;50.944;5.304;2023-07-29T13:57:17;20.10;99.90
19252;DHT22;9760;50.944;5.304;2023-07-29T13:59:43;20.30;99.90
19252;DHT22;9760;50.944;5.304;2023-07-29T14:02:08;20.40;99.90
19252;DHT22;9760;50.944;5.304;2023-07-29T14:04:34;20.60;99.90
19252;DHT22;9760;50.944;5.304;2023-07-29T14:07:00;20.90;99.90
19252;DHT22;9760;50.944;5.304;2023-07-29T14:09:26;21.00;99.90
19252;DHT22;9760;50.944;5.304;2023-07-29T14:11:53;21.00;99.90
19252;DHT22;9760;50.944;5.304;2023-07-29T14:14:19;21.30;99.90
19252;DHT22;9760;50.944;5.304;2023-07-29T14:16:45;21.40;99.90
19252;DHT22;9760;50.944;5.304;2023-07-29T14:19:11;21.50;99.90
19252;DHT22;9760;50.944;5.304;2023-07-29T14:21:37;21.90;99.90
19252;DHT22;9760;50.944;5.304;2023-07-29T14:24:02;22.10;99.90
19252;DHT22;9760;50.944;5.304;2023-07-29T14:26:28;22.10;99.90
19252;DHT22;9760;50.944;5.304;2023-07-29T14:28:54;22.10;99.90
19252;DHT22;9760;50.944;5.304;2023-07-29T14:31:19;22.20;99.90
19252;DHT22;9760;50.944;5.304;2023-07-29T14:33:45;22.40;99.90
19252;DHT22;9760;50.944;5.304;2023-07-29T14:36:11;22.80;99.90
19252;DHT22;9760;50.944;5.304;2023-07-29T14:38:36;22.70;99.90
19252;DHT22;9760;50.944;5.304;2023-07-29T14:41:02;22.60;99.90
19252;DHT22;9760;50.944;5.304;2023-07-29T14:43:30;22.70;99.90
19252;DHT22;9760;50.944;5.304;2023-07-29T14:45:55;22.80;99.90
19252;DHT22;9760;50.944;5.304;2023-07-29T14:48:21;23.10;99.90
19252;DHT22;9760;50.944;5.304;2023-07-29T14:50:47;23.30;99.90
19252;DHT22;9760;50.944;5.304;2023-07-29T14:53:13;23.30;99.90
19252;DHT22;9760;50.944;5.304;2023-07-29T14:55:39;23.00;99.90
19252;DHT22;9760;50.944;5.304;2023-07-29T14:58:05;22.60;99.90
19252;DHT22;9760;50.944;5.304;2023-07-29T15:00:30;22.50;99.90
19252;DHT22;9760;50.944;5.304;2023-07-29T15:02:56;22.40;99.90
19252;DHT22;9760;50.944;5.304;2023-07-29T15:05:21;22.40;99.90
19252;DHT22;9760;50.944;5.304;2023-07-29T15:07:47;22.30;99.90
19252;DHT22;9760;50.944;5.304;2023-07-29T15:10:17;22.10;99.90
19252;DHT22;9760;50.944;5.304;2023-07-29T15:12:43;21.90;99.90
19252;DHT22;9760;50.944;5.304;2023-07-29T15:15:10;21.50;99.90
19252;DHT22;9760;50.944;5.304;2023-07-29T15:17:36;21.30;99.90
19252;DHT22;9760;50.944;5.304;2023-07-29T15:20:02;21.40;99.90
19252;DHT22;9760;50.944;5.304;2023-07-29T15:22:29;21.80;99.90
19252;DHT22;9760;50.944;5.304;2023-07-29T15:24:57;22.10;99.90
19252;DHT22;9760;50.944;5.304;2023-07-29T15:27:24;22.50;99.90
19252;DHT22;9760;50.944;5.304;2023-07-29T15:29:50;22.80;99.90
19252;DHT22;9760;50.944;5.304;2023-07-29T15:32:16;22.80;99.90
19252;DHT22;9760;50.944;5.304;2023-07-29T15:34:41;22.50;99.90
19252;DHT22;9760;50.944;5.304;2023-07-29T15:37:07;22.40;99.90
19252;DHT22;9760;50.944;5.304;2023-07-29T15:39:33;22.60;99.90
19252;DHT22;9760;50.944;5.304;2023-07-29T15:41:59;23.70;99.90
19252;DHT22;9760;50.944;5.304;2023-07-29T15:44:24;24.60;99.90
19252;DHT22;9760;50.944;5.304;2023-07-29T15:46:50;24.40;99.90
19252;DHT22;9760;50.944;5.304;2023-07-29T15:49:22;23.90;99.90
19252;DHT22;9760;50.944;5.304;2023-07-29T15:51:48;24.40;99.90
19252;DHT22;9760;50.944;5.304;2023-07-29T15:54:14;25.20;99.90
19252;DHT22;9760;50.944;5.304;2023-07-29T15:56:39;25.10;99.90